Time;durP1;ratioP1;P1;durP2;ratioP2;P2;SDS_P1;SDS_P2;PMS_P1;PMS_P2;Temp;Humidity;BMP_temperature;BMP_pressure;BME280_temperature;BME280_humidity;BME280_pressure;Samples;Min_cycle;Max_cycle;Signal;HPM_P1;HPM_P2
2022/11/21 00:00:52;;;;;;;;;;;1.20;91.20;;;;;;4994615;28;19924;-44
2022/11/21 00:03:19;;;;;;;;;;;1.20;91.20;;;;;;5001171;28;20259;-44
2022/11/21 00:05:49;;;;;;;;;;;1.20;91.30;;;;;;5000226;28;20071;-43
2022/11/21 00:08:17;;;;;;;;;;;1.30;91.30;;;;;;5008402;28;20354;-43
2022/11/21 00:10:43;;;;;;;;;;;1.30;91.20;;;;;;5008031;28;20382;-43
2022/11/21 00:13:14;;;;;;;;;;;1.30;91.20;;;;;;5009533;28;19917;-44
2022/11/21 00:15:41;;;;;;;;;;;1.30;91.10;;;;;;4997077;28;19921;-43
2022/11/21 00:18:10;;;;;;;;;;;1.40;91.10;;;;;;4993510;28;19906;-43
2022/11/21 00:20:41;;;;;;;;;;;1.40;91.00;;;;;;4993579;28;19963;-44
2022/11/21 00:23:08;;;;;;;;;;;1.40;91.10;;;;;;4993526;28;19905;-43
2022/11/21 00:25:34;;;;;;;;;;;1.40;91.00;;;;;;5011184;28;19980;-43
2022/11/21 00:28:01;;;;;;;;;;;1.40;90.90;;;;;;5011496;28;19948;-44
2022/11/21 00:30:27;;;;;;;;;;;1.40;90.90;;;;;;4996965;28;19914;-43
2022/11/21 00:32:56;;;;;;;;;;;1.40;90.80;;;;;;4992857;28;20000;-43
2022/11/21 00:35:27;;;;;;;;;;;1.40;90.70;;;;;;4991869;28;20330;-43
2022/11/21 00:38:00;;;;;;;;;;;1.40;90.70;;;;;;4993272;28;20004;-44
2022/11/21 00:40:27;;;;;;;;;;;1.30;90.70;;;;;;5008325;28;19913;-42
2022/11/21 00:42:52;;;;;;;;;;;1.30;90.50;;;;;;5010141;28;19910;-44
2022/11/21 00:45:18;;;;;;;;;;;1.30;90.30;;;;;;5012307;28;19960;-44
2022/11/21 00:47:49;;;;;;;;;;;1.30;90.40;;;;;;4995972;28;19914;-43
2022/11/21 00:50:16;;;;;;;;;;;1.30;90.40;;;;;;4993149;28;19993;-43
2022/11/21 00:52:43;;;;;;;;;;;1.20;90.30;;;;;;4992104;28;19909;-43
2022/11/21 00:55:10;;;;;;;;;;;1.20;90.30;;;;;;5009923;28;20354;-44
2022/11/21 00:57:37;;;;;;;;;;;1.20;90.30;;;;;;5011117;28;19924;-42
2022/11/21 01:00:04;;;;;;;;;;;1.20;90.20;;;;;;5006065;28;19909;-44
2022/11/21 01:02:30;;;;;;;;;;;1.20;90.20;;;;;;4992879;28;19921;-43
2022/11/21 01:04:57;;;;;;;;;;;1.20;90.20;;;;;;5008263;28;19996;-45
2022/11/21 01:07:22;;;;;;;;;;;1.20;90.00;;;;;;4992658;28;19910;-44
2022/11/21 01:09:48;;;;;;;;;;;1.10;90.00;;;;;;4970817;28;1167442;-42
2022/11/21 01:12:14;;;;;;;;;;;1.10;89.90;;;;;;5010724;28;19959;-44
2022/11/21 01:14:41;;;;;;;;;;;1.10;90.10;;;;;;5005384;28;20239;-43
2022/11/21 01:17:06;;;;;;;;;;;1.10;90.20;;;;;;4993962;28;19921;-44
2022/11/21 01:19:33;;;;;;;;;;;1.10;90.10;;;;;;4994465;28;19913;-43
2022/11/21 01:21:59;;;;;;;;;;;1.20;90.10;;;;;;4993593;28;19953;-44
2022/11/21 01:24:26;;;;;;;;;;;1.10;89.80;;;;;;5012407;28;19936;-45
2022/11/21 01:26:54;;;;;;;;;;;1.10;90.00;;;;;;5013252;28;19914;-42
2022/11/21 01:29:20;;;;;;;;;;;1.10;90.10;;;;;;5001914;28;19917;-43
2022/11/21 01:31:46;;;;;;;;;;;1.10;90.00;;;;;;4993640;28;19906;-44
2022/11/21 01:34:17;;;;;;;;;;;1.10;90.00;;;;;;4993808;28;20422;-43
2022/11/21 01:36:44;;;;;;;;;;;1.10;90.00;;;;;;4996418;28;20339;-44
2022/11/21 01:39:11;;;;;;;;;;;1.00;90.10;;;;;;5013249;28;20220;-43
2022/11/21 01:41:41;;;;;;;;;;;1.00;90.00;;;;;;5013095;28;20048;-44
2022/11/21 01:44:15;;;;;;;;;;;1.00;90.10;;;;;;5001715;28;20316;-43
2022/11/21 01:46:42;;;;;;;;;;;0.90;90.00;;;;;;4995429;28;19913;-44
2022/11/21 01:49:16;;;;;;;;;;;0.90;90.00;;;;;;4996467;28;19910;-44
2022/11/21 01:51:42;;;;;;;;;;;0.90;89.90;;;;;;5004906;28;19928;-44
2022/11/21 01:54:23;;;;;;;;;;;0.80;89.80;;;;;;5015147;28;20319;-44
2022/11/21 01:57:06;;;;;;;;;;;0.80;90.00;;;;;;4999150;28;20331;-45
2022/11/21 01:59:36;;;;;;;;;;;0.80;90.00;;;;;;5005919;28;19955;-46
2022/11/21 02:02:05;;;;;;;;;;;0.80;90.00;;;;;;4996115;28;19929;-44
2022/11/21 02:04:32;;;;;;;;;;;0.80;90.10;;;;;;4996073;28;19916;-44
2022/11/21 02:07:01;;;;;;;;;;;0.80;90.10;;;;;;5005464;28;20401;-44
2022/11/21 02:09:28;;;;;;;;;;;0.80;90.10;;;;;;5007552;28;19928;-44
2022/11/21 02:11:58;;;;;;;;;;;0.70;90.00;;;;;;5014113;28;20410;-46
2022/11/21 02:14:24;;;;;;;;;;;0.70;90.00;;;;;;5014654;28;19909;-44
2022/11/21 02:16:50;;;;;;;;;;;0.70;90.10;;;;;;4999719;28;19913;-43
2022/11/21 02:19:27;;;;;;;;;;;0.70;90.00;;;;;;5007407;28;19924;-44
2022/11/21 02:22:13;;;;;;;;;;;0.50;90.00;;;;;;5011796;28;19980;-44
2022/11/21 02:25:00;;;;;;;;;;;0.50;90.10;;;;;;4995928;28;19909;-44
2022/11/21 02:27:29;;;;;;;;;;;0.50;90.10;;;;;;4995359;28;20367;-44
2022/11/21 02:29:56;;;;;;;;;;;0.40;90.20;;;;;;5011125;28;19992;-43
2022/11/21 02:32:23;;;;;;;;;;;0.40;90.20;;;;;;5003291;28;19909;-43
2022/11/21 02:34:49;;;;;;;;;;;0.40;90.20;;;;;;5009347;28;20343;-44
2022/11/21 02:37:16;;;;;;;;;;;0.40;90.20;;;;;;5012421;28;19909;-45
2022/11/21 02:39:43;;;;;;;;;;;0.40;90.20;;;;;;5013828;28;20306;-45
2022/11/21 02:42:27;;;;;;;;;;;0.40;90.20;;;;;;5013148;28;20016;-44
2022/11/21 02:45:12;;;;;;;;;;;0.40;90.20;;;;;;5014039;28;20239;-44
2022/11/21 02:47:40;;;;;;;;;;;0.30;90.10;;;;;;5011172;28;20395;-45
2022/11/21 02:50:11;;;;;;;;;;;0.30;90.20;;;;;;5015553;28;19913;-44
2022/11/21 02:52:38;;;;;;;;;;;0.30;90.30;;;;;;5014954;28;19917;-44
2022/11/21 02:55:04;;;;;;;;;;;0.20;90.10;;;;;;5015316;28;19914;-44
2022/11/21 02:57:32;;;;;;;;;;;0.20;90.10;;;;;;4996046;28;19972;-44
2022/11/21 02:59:59;;;;;;;;;;;0.20;90.10;;;;;;5006216;28;20008;-43
2022/11/21 03:02:26;;;;;;;;;;;0.20;90.10;;;;;;5004841;28;19939;-43
2022/11/21 03:04:52;;;;;;;;;;;0.10;90.10;;;;;;5013838;28;19949;-45
2022/11/21 03:07:19;;;;;;;;;;;0.20;90.20;;;;;;5015101;28;19971;-46
2022/11/21 03:09:46;;;;;;;;;;;0.20;90.30;;;;;;5011710;28;20330;-44
2022/11/21 03:12:13;;;;;;;;;;;0.20;90.20;;;;;;4995254;28;19913;-44
2022/11/21 03:14:40;;;;;;;;;;;0.20;90.30;;;;;;5005987;28;20246;-45
2022/11/21 03:17:07;;;;;;;;;;;0.20;90.30;;;;;;5015037;28;19917;-44
2022/11/21 03:19:34;;;;;;;;;;;0.20;90.40;;;;;;5013289;28;19917;-44
2022/11/21 03:22:00;;;;;;;;;;;0.20;90.30;;;;;;5013064;28;20377;-45
2022/11/21 03:24:27;;;;;;;;;;;0.10;90.30;;;;;;4995703;28;20343;-44
2022/11/21 03:26:54;;;;;;;;;;;0.10;90.20;;;;;;5003286;28;20000;-44
2022/11/21 03:29:21;;;;;;;;;;;0.20;90.30;;;;;;5012931;28;19921;-44
2022/11/21 03:31:48;;;;;;;;;;;0.10;90.20;;;;;;5011518;28;20000;-44
2022/11/21 03:34:14;;;;;;;;;;;0.10;90.10;;;;;;5010543;28;19919;-44
2022/11/21 03:36:41;;;;;;;;;;;0.10;90.10;;;;;;4994993;28;19959;-44
2022/11/21 03:39:07;;;;;;;;;;;0.00;90.10;;;;;;4995030;28;20355;-44
2022/11/21 03:41:34;;;;;;;;;;;0.10;90.00;;;;;;4994075;28;20351;-44
2022/11/21 03:44:02;;;;;;;;;;;0.10;90.00;;;;;;5012419;28;20404;-46
2022/11/21 03:46:29;;;;;;;;;;;0.00;89.90;;;;;;5006844;28;19913;-44
2022/11/21 03:48:56;;;;;;;;;;;0.10;90.00;;;;;;4994926;28;20007;-44
2022/11/21 03:51:23;;;;;;;;;;;0.00;89.90;;;;;;4994612;28;20339;-44
2022/11/21 03:53:50;;;;;;;;;;;0.00;89.80;;;;;;4994202;28;19909;-44
2022/11/21 03:56:17;;;;;;;;;;;0.00;89.80;;;;;;5005705;28;19924;-43
2022/11/21 03:58:47;;;;;;;;;;;0.00;89.90;;;;;;5012515;28;19917;-43
2022/11/21 04:01:14;;;;;;;;;;;0.00;89.70;;;;;;5014459;28;19937;-44
2022/11/21 04:03:41;;;;;;;;;;;0.00;89.80;;;;;;5005962;28;19909;-43
2022/11/21 04:06:09;;;;;;;;;;;0.00;89.70;;;;;;4994633;28;19913;-43
2022/11/21 04:08:38;;;;;;;;;;;0.00;89.80;;;;;;4994162;28;19929;-43
2022/11/21 04:11:09;;;;;;;;;;;0.00;89.70;;;;;;4999540;28;19917;-44
2022/11/21 04:13:36;;;;;;;;;;;0.00;89.70;;;;;;5008515;28;20480;-43
2022/11/21 04:16:03;;;;;;;;;;;0.00;89.70;;;;;;4994173;28;20511;-44
2022/11/21 04:18:30;;;;;;;;;;;0.00;89.70;;;;;;5009954;28;19976;-43
2022/11/21 04:20:57;;;;;;;;;;;0.00;89.70;;;;;;4994356;28;19910;-45
2022/11/21 04:26:12;;;;;;;;;;;0.00;89.70;;;;;;4993924;28;19932;-45
2022/11/21 04:28:39;;;;;;;;;;;-3276.70;89.40;;;;;;4996104;28;19913;-44
2022/11/21 04:31:06;;;;;;;;;;;0.00;89.40;;;;;;5002415;28;19920;-44
2022/11/21 04:33:32;;;;;;;;;;;-3276.70;89.40;;;;;;4994289;28;19922;-45
2022/11/21 04:35:59;;;;;;;;;;;-3276.70;89.30;;;;;;4994176;28;19980;-46
2022/11/21 04:38:26;;;;;;;;;;;-3276.70;89.30;;;;;;4998432;28;19937;-44
2022/11/21 04:40:53;;;;;;;;;;;-3276.60;89.20;;;;;;5012773;28;20339;-44
2022/11/21 04:43:20;;;;;;;;;;;-3276.60;89.20;;;;;;5008848;28;20031;-44
2022/11/21 04:45:46;;;;;;;;;;;-3276.70;89.30;;;;;;5011611;28;19924;-44
2022/11/21 04:48:13;;;;;;;;;;;-3276.60;89.20;;;;;;5013896;28;19936;-45
2022/11/21 04:50:40;;;;;;;;;;;-3276.60;89.10;;;;;;4993350;28;20353;-44
2022/11/21 04:53:06;;;;;;;;;;;-3276.60;89.00;;;;;;4997491;28;19945;-44
2022/11/21 04:55:32;;;;;;;;;;;-3276.60;88.90;;;;;;5002642;28;19917;-45
2022/11/21 04:57:59;;;;;;;;;;;-3276.60;88.80;;;;;;5012384;28;19920;-45
2022/11/21 05:00:26;;;;;;;;;;;-3276.60;88.80;;;;;;5012623;28;19916;-44
2022/11/21 05:02:53;;;;;;;;;;;-3276.60;88.80;;;;;;5013834;28;19917;-44
2022/11/21 05:05:24;;;;;;;;;;;-3276.60;88.70;;;;;;5009188;28;19919;-45
2022/11/21 05:07:50;;;;;;;;;;;-3276.60;88.70;;;;;;5013123;28;19951;-43
2022/11/21 05:10:16;;;;;;;;;;;-3276.60;88.50;;;;;;5012635;28;19913;-45
2022/11/21 05:15:27;;;;;;;;;;;-3276.50;88.60;;;;;;5007327;28;19971;-47
2022/11/21 05:17:53;;;;;;;;;;;-3276.50;88.60;;;;;;5012574;28;19909;-45
2022/11/21 05:20:19;;;;;;;;;;;-3276.50;88.50;;;;;;5013547;28;19989;-44
2022/11/21 05:22:49;;;;;;;;;;;-3276.50;88.40;;;;;;5011772;28;19909;-44
2022/11/21 05:25:16;;;;;;;;;;;-3276.50;88.40;;;;;;5005510;28;20004;-44
2022/11/21 05:27:42;;;;;;;;;;;-3276.50;88.30;;;;;;5011534;28;19913;-43
2022/11/21 05:30:09;;;;;;;;;;;-3276.50;88.40;;;;;;5004235;28;19909;-44
2022/11/21 05:32:36;;;;;;;;;;;-3276.50;88.20;;;;;;5011863;28;19909;-44
2022/11/21 05:35:03;;;;;;;;;;;-3276.40;88.10;;;;;;4996378;28;20683;-44
2022/11/21 05:37:30;;;;;;;;;;;-3276.50;88.10;;;;;;5002905;28;19957;-43
2022/11/21 05:39:57;;;;;;;;;;;-3276.50;88.20;;;;;;5001570;28;19979;-44
2022/11/21 05:45:12;;;;;;;;;;;-3276.50;88.10;;;;;;5000440;28;20028;-45
2022/11/21 05:47:40;;;;;;;;;;;-3276.50;88.10;;;;;;5014783;28;19983;-45
2022/11/21 05:50:07;;;;;;;;;;;-3276.50;88.10;;;;;;5012464;28;19910;-43
2022/11/21 05:52:33;;;;;;;;;;;-3276.50;88.10;;;;;;5013506;28;19921;-44
2022/11/21 05:55:00;;;;;;;;;;;-3276.50;88.20;;;;;;5014865;28;19909;-45
2022/11/21 05:57:27;;;;;;;;;;;-3276.50;88.20;;;;;;4996650;28;20236;-45
2022/11/21 05:59:54;;;;;;;;;;;-3276.50;88.10;;;;;;4997068;28;19997;-45
2022/11/21 06:05:06;;;;;;;;;;;-3276.60;88.00;;;;;;4998958;28;19920;-46
2022/11/21 06:07:33;;;;;;;;;;;-3276.50;87.90;;;;;;4996570;28;19922;-44
2022/11/21 06:09:59;;;;;;;;;;;-3276.60;88.10;;;;;;5014565;28;19925;-44
2022/11/21 06:12:25;;;;;;;;;;;-3276.60;87.90;;;;;;5015313;28;20675;-44
2022/11/21 06:14:52;;;;;;;;;;;-3276.60;87.80;;;;;;5013696;28;19991;-45
2022/11/21 06:17:18;;;;;;;;;;;-3276.60;87.90;;;;;;5014908;28;20327;-44
2022/11/21 06:19:47;;;;;;;;;;;-3276.60;87.90;;;;;;5014574;28;19905;-43
2022/11/21 06:22:14;;;;;;;;;;;-3276.60;87.80;;;;;;5012790;28;20273;-44
2022/11/21 06:24:41;;;;;;;;;;;-3276.60;87.60;;;;;;5016082;28;19917;-44
2022/11/21 06:27:07;;;;;;;;;;;-3276.60;87.40;;;;;;5002504;28;19940;-45
2022/11/21 06:29:37;;;;;;;;;;;-3276.60;87.30;;;;;;4996296;28;19960;-43
2022/11/21 06:32:02;;;;;;;;;;;-3276.60;87.40;;;;;;5005723;28;19921;-43
2022/11/21 06:34:29;;;;;;;;;;;-3276.60;87.60;;;;;;4999594;28;19914;-43
2022/11/21 06:36:56;;;;;;;;;;;-3276.60;87.50;;;;;;5015670;28;19905;-45
2022/11/21 06:39:22;;;;;;;;;;;-3276.60;87.40;;;;;;5014558;28;19905;-46
2022/11/21 06:41:49;;;;;;;;;;;-3276.60;87.60;;;;;;5000792;28;19910;-45
2022/11/21 06:44:17;;;;;;;;;;;-3276.60;87.70;;;;;;4995839;28;19968;-45
2022/11/21 06:46:44;;;;;;;;;;;-3276.60;87.50;;;;;;5012700;28;19925;-44
2022/11/21 06:49:14;;;;;;;;;;;-3276.60;87.50;;;;;;5015153;28;19917;-44
2022/11/21 06:51:40;;;;;;;;;;;-3276.60;87.40;;;;;;5015120;28;19906;-43
2022/11/21 06:54:06;;;;;;;;;;;-3276.60;87.40;;;;;;5009714;28;19914;-44
2022/11/21 06:56:33;;;;;;;;;;;-3276.60;87.40;;;;;;4995299;28;19905;-47
2022/11/21 06:59:00;;;;;;;;;;;-3276.50;87.50;;;;;;4999019;28;19909;-46
2022/11/21 07:01:27;;;;;;;;;;;-3276.50;87.40;;;;;;5013588;28;19983;-44
2022/11/21 07:03:53;;;;;;;;;;;-3276.50;87.60;;;;;;4995319;28;19909;-44
2022/11/21 07:06:20;;;;;;;;;;;-3276.50;87.60;;;;;;4995829;28;20239;-43
2022/11/21 07:08:47;;;;;;;;;;;-3276.50;87.50;;;;;;4994861;28;19921;-45
2022/11/21 07:11:13;;;;;;;;;;;-3276.50;87.50;;;;;;5010718;28;19925;-44
2022/11/21 07:13:41;;;;;;;;;;;-3276.40;87.40;;;;;;4995750;28;19916;-44
2022/11/21 07:16:08;;;;;;;;;;;-3276.40;87.50;;;;;;5011219;28;20020;-43
2022/11/21 07:18:35;;;;;;;;;;;-3276.40;87.40;;;;;;5014115;28;19910;-43
2022/11/21 07:21:04;;;;;;;;;;;-3276.50;87.70;;;;;;5015140;28;19959;-44
2022/11/21 07:23:30;;;;;;;;;;;-3276.50;87.70;;;;;;5015027;28;19916;-44
2022/11/21 07:26:00;;;;;;;;;;;-3276.50;87.50;;;;;;5009865;28;20234;-45
2022/11/21 07:28:35;;;;;;;;;;;-3276.50;87.60;;;;;;5013580;28;19917;-44
2022/11/21 07:31:02;;;;;;;;;;;-3276.50;87.70;;;;;;5003332;28;19905;-45
2022/11/21 07:33:29;;;;;;;;;;;-3276.60;87.80;;;;;;5010634;28;19987;-45
2022/11/21 07:35:56;;;;;;;;;;;-3276.60;87.80;;;;;;5004403;28;19906;-44
2022/11/21 07:38:24;;;;;;;;;;;-3276.60;87.70;;;;;;4999516;28;19932;-44
2022/11/21 07:40:52;;;;;;;;;;;-3276.60;87.80;;;;;;5014852;28;19942;-47
2022/11/21 07:43:18;;;;;;;;;;;-3276.60;87.70;;;;;;5009909;28;20339;-44
2022/11/21 07:45:48;;;;;;;;;;;-3276.70;87.90;;;;;;5014471;28;20010;-43
2022/11/21 07:48:15;;;;;;;;;;;-3276.70;88.00;;;;;;5012482;28;19909;-43
2022/11/21 07:50:42;;;;;;;;;;;-3276.70;88.10;;;;;;5014486;28;19997;-46
2022/11/21 07:53:10;;;;;;;;;;;0.00;87.90;;;;;;5009419;28;19988;-44
2022/11/21 07:55:37;;;;;;;;;;;0.00;88.00;;;;;;4995415;28;19914;-44
2022/11/21 07:58:04;;;;;;;;;;;0.00;87.80;;;;;;5004765;28;19909;-45
2022/11/21 08:00:32;;;;;;;;;;;0.00;87.50;;;;;;4997205;28;19920;-44
2022/11/21 08:02:58;;;;;;;;;;;0.00;87.40;;;;;;5005443;28;20351;-44
2022/11/21 08:05:26;;;;;;;;;;;0.00;87.40;;;;;;4994551;28;19953;-44
2022/11/21 08:07:53;;;;;;;;;;;0.00;87.50;;;;;;4994483;28;20536;-47
2022/11/21 08:10:21;;;;;;;;;;;0.00;87.50;;;;;;4995029;28;19953;-44
2022/11/21 08:12:51;;;;;;;;;;;0.10;87.70;;;;;;4994597;28;19929;-46
2022/11/21 08:15:17;;;;;;;;;;;0.10;87.80;;;;;;4993873;28;19917;-43
2022/11/21 08:17:44;;;;;;;;;;;0.20;87.70;;;;;;5010558;28;19957;-44
2022/11/21 08:20:12;;;;;;;;;;;0.30;87.70;;;;;;5012130;28;19910;-43
2022/11/21 08:22:39;;;;;;;;;;;0.30;87.60;;;;;;5004190;28;19917;-43
2022/11/21 08:25:06;;;;;;;;;;;0.30;87.50;;;;;;4993892;28;19949;-44
2022/11/21 08:27:31;;;;;;;;;;;0.50;87.40;;;;;;4996717;28;20010;-44
2022/11/21 08:29:58;;;;;;;;;;;0.40;87.10;;;;;;5011675;28;19991;-45
2022/11/21 08:32:25;;;;;;;;;;;0.50;87.20;;;;;;5012250;28;20266;-46
2022/11/21 08:34:51;;;;;;;;;;;0.50;87.00;;;;;;5008834;28;19921;-43
2022/11/21 08:37:19;;;;;;;;;;;0.50;87.20;;;;;;4993522;28;19992;-43
2022/11/21 08:39:46;;;;;;;;;;;0.60;87.20;;;;;;4993561;28;19913;-45
2022/11/21 08:42:12;;;;;;;;;;;0.70;87.40;;;;;;5009549;28;19913;-43
2022/11/21 08:44:38;;;;;;;;;;;0.80;87.30;;;;;;5014188;28;19924;-42
2022/11/21 08:47:05;;;;;;;;;;;0.90;87.20;;;;;;5011587;28;20458;-42
2022/11/21 08:49:32;;;;;;;;;;;0.90;86.80;;;;;;4994455;28;20000;-41
2022/11/21 08:51:59;;;;;;;;;;;1.00;86.80;;;;;;5010063;28;20327;-42
2022/11/21 08:54:25;;;;;;;;;;;0.90;86.30;;;;;;5009369;28;19913;-43
2022/11/21 08:56:52;;;;;;;;;;;0.90;86.40;;;;;;5010739;28;20307;-42
2022/11/21 08:59:19;;;;;;;;;;;1.00;86.70;;;;;;5015664;28;19917;-41
2022/11/21 09:01:46;;;;;;;;;;;1.00;86.40;;;;;;5016468;28;19910;-42
2022/11/21 09:04:12;;;;;;;;;;;1.00;86.00;;;;;;5011535;28;20270;-41
2022/11/21 09:06:38;;;;;;;;;;;0.90;86.20;;;;;;5002587;28;19926;-42
2022/11/21 09:09:06;;;;;;;;;;;0.90;86.50;;;;;;5015551;28;20008;-42
2022/11/21 09:11:34;;;;;;;;;;;0.80;86.60;;;;;;5010915;28;19909;-44
2022/11/21 09:19:31;;;;;;;;;;;0.80;87.20;;;;;;5014871;28;19968;-43
2022/11/21 09:22:00;;;;;;;;;;;0.70;87.40;;;;;;5010436;28;19917;-43
2022/11/21 09:24:27;;;;;;;;;;;0.70;87.30;;;;;;4997412;28;19920;-44
2022/11/21 09:26:53;;;;;;;;;;;0.70;87.50;;;;;;5013258;28;19921;-46
2022/11/21 09:29:20;;;;;;;;;;;0.80;87.90;;;;;;5014849;28;19959;-42
2022/11/21 09:31:47;;;;;;;;;;;0.80;87.70;;;;;;5009446;28;20378;-44
2022/11/21 09:34:13;;;;;;;;;;;0.80;87.70;;;;;;5015913;28;19913;-43
2022/11/21 09:36:40;;;;;;;;;;;0.80;87.80;;;;;;5016000;28;20315;-43
2022/11/21 09:39:07;;;;;;;;;;;0.90;87.80;;;;;;5014671;28;19910;-42
2022/11/21 09:41:50;;;;;;;;;;;0.90;87.80;;;;;;5004653;28;19919;-41
2022/11/21 09:44:29;;;;;;;;;;;1.10;87.80;;;;;;5016749;28;19924;-43
2022/11/21 09:47:01;;;;;;;;;;;1.20;87.60;;;;;;5015607;28;19924;-44
2022/11/21 09:49:29;;;;;;;;;;;1.10;87.20;;;;;;4997381;28;19914;-41
2022/11/21 09:51:56;;;;;;;;;;;1.10;87.30;;;;;;4996203;28;19985;-42
2022/11/21 09:54:30;;;;;;;;;;;1.00;87.60;;;;;;5005082;28;19968;-42
2022/11/21 09:56:58;;;;;;;;;;;1.10;87.70;;;;;;4996048;28;19951;-42
2022/11/21 09:59:42;;;;;;;;;;;1.20;87.60;;;;;;4996783;28;20296;-43
2022/11/21 10:02:14;;;;;;;;;;;1.20;87.50;;;;;;5000114;28;19999;-47
2022/11/21 10:04:39;;;;;;;;;;;1.20;87.20;;;;;;5001745;28;19965;-41
2022/11/21 10:07:09;;;;;;;;;;;1.30;87.30;;;;;;5005774;28;19913;-41
2022/11/21 10:09:54;;;;;;;;;;;1.30;87.10;;;;;;5009132;28;19980;-42
2022/11/21 10:12:39;;;;;;;;;;;1.30;87.30;;;;;;4996643;28;19917;-41
2022/11/21 10:15:26;;;;;;;;;;;1.40;87.40;;;;;;4995356;28;20303;-43
2022/11/21 10:18:11;;;;;;;;;;;1.40;87.40;;;;;;5003439;28;19914;-43
2022/11/21 10:20:49;;;;;;;;;;;1.40;87.20;;;;;;5012720;28;19913;-41
2022/11/21 10:23:29;;;;;;;;;;;1.50;87.00;;;;;;4996276;28;19916;-42
2022/11/21 10:25:57;;;;;;;;;;;1.50;87.30;;;;;;4996297;28;20251;-42
2022/11/21 10:28:28;;;;;;;;;;;1.60;87.20;;;;;;4996183;28;20332;-42
2022/11/21 10:30:57;;;;;;;;;;;1.50;86.90;;;;;;5002254;28;19959;-41
2022/11/21 10:33:29;;;;;;;;;;;1.50;86.60;;;;;;5012547;28;19905;-41
2022/11/21 10:35:57;;;;;;;;;;;1.50;86.90;;;;;;4995385;28;19913;-41
2022/11/21 10:38:25;;;;;;;;;;;1.60;87.10;;;;;;5004588;28;20009;-43
2022/11/21 10:41:09;;;;;;;;;;;1.60;87.10;;;;;;4999078;28;20223;-41
2022/11/21 10:46:25;;;;;;;;;;;1.80;86.70;;;;;;4999551;28;19924;-42
2022/11/21 10:48:57;;;;;;;;;;;1.80;86.80;;;;;;5028921;28;19917;-41
2022/11/21 10:51:53;;;;;;;;;;;1.90;86.90;;;;;;5014628;28;19910;-41
2022/11/21 10:54:35;;;;;;;;;;;1.80;86.90;;;;;;4995830;28;19913;-42
2022/11/21 10:57:14;;;;;;;;;;;1.90;86.50;;;;;;5015167;28;20310;-41
2022/11/21 10:59:40;;;;;;;;;;;1.90;86.30;;;;;;5015112;28;19905;-42
2022/11/21 11:02:18;;;;;;;;;;;2.00;86.30;;;;;;5005182;28;19917;-41
2022/11/21 11:04:43;;;;;;;;;;;1.90;85.90;;;;;;4995859;28;20339;-44
2022/11/21 11:07:27;;;;;;;;;;;1.90;86.20;;;;;;5000092;28;19928;-44
2022/11/21 11:10:14;;;;;;;;;;;2.00;86.30;;;;;;5012653;28;19992;-42
2022/11/21 11:15:25;;;;;;;;;;;2.00;86.00;;;;;;4995419;28;19917;-43
2022/11/21 11:17:56;;;;;;;;;;;2.00;86.10;;;;;;5009134;28;19910;-43
2022/11/21 11:20:33;;;;;;;;;;;2.20;86.20;;;;;;4995047;28;19923;-44
2022/11/21 11:23:13;;;;;;;;;;;2.30;85.90;;;;;;5002710;28;20343;-43
2022/11/21 11:25:44;;;;;;;;;;;2.40;85.00;;;;;;5013819;28;20259;-41
2022/11/21 11:28:11;;;;;;;;;;;2.40;85.10;;;;;;5009336;28;19940;-42
2022/11/21 11:30:41;;;;;;;;;;;2.50;84.60;;;;;;5010297;28;19967;-42
2022/11/21 11:33:26;;;;;;;;;;;2.50;84.50;;;;;;4995577;28;20255;-43
2022/11/21 11:35:52;;;;;;;;;;;2.70;84.50;;;;;;4994494;28;20016;-42
2022/11/21 11:38:22;;;;;;;;;;;2.90;84.40;;;;;;5006711;28;19913;-43
2022/11/21 11:40:48;;;;;;;;;;;3.00;84.00;;;;;;5012389;28;19917;-43
2022/11/21 11:49:10;;;;;;;;;;;3.40;82.80;;;;;;5007617;28;19964;-42
2022/11/21 11:51:39;;;;;;;;;;;3.40;82.40;;;;;;4994976;28;19909;-44
2022/11/21 11:54:14;;;;;;;;;;;3.50;81.50;;;;;;4995012;28;20369;-43
2022/11/21 11:56:41;;;;;;;;;;;3.40;80.70;;;;;;4994630;28;20334;-42
2022/11/21 11:59:17;;;;;;;;;;;3.50;80.50;;;;;;5005386;28;20012;-43
2022/11/21 12:02:01;;;;;;;;;;;3.40;79.00;;;;;;5012774;28;19956;-44
2022/11/21 12:04:41;;;;;;;;;;;3.40;79.30;;;;;;5010250;28;20775;-44
2022/11/21 12:07:25;;;;;;;;;;;3.40;79.90;;;;;;4994755;28;20221;-43
2022/11/21 12:10:00;;;;;;;;;;;3.40;79.90;;;;;;4994404;28;19917;-42
2022/11/21 12:12:37;;;;;;;;;;;3.40;80.50;;;;;;4996296;28;19915;-44
2022/11/21 12:15:48;;;;;;;;;;;3.40;80.50;;;;;;4999245;28;19920;-43
2022/11/21 12:18:16;;;;;;;;;;;3.40;80.40;;;;;;5009499;28;20000;-43
2022/11/21 12:21:00;;;;;;;;;;;3.40;80.70;;;;;;4994450;28;20328;-43
2022/11/21 12:23:30;;;;;;;;;;;3.50;80.50;;;;;;4994560;28;19924;-43
2022/11/21 12:26:05;;;;;;;;;;;3.50;80.60;;;;;;4996331;28;19928;-44
2022/11/21 12:28:49;;;;;;;;;;;3.50;80.40;;;;;;4994202;28;19929;-43
2022/11/21 12:31:39;;;;;;;;;;;3.40;80.40;;;;;;5001232;28;19909;-42
2022/11/21 12:34:24;;;;;;;;;;;3.50;80.60;;;;;;5005554;28;20007;-43
2022/11/21 12:37:11;;;;;;;;;;;3.50;81.10;;;;;;5011994;28;19949;-44
2022/11/21 12:39:48;;;;;;;;;;;3.50;81.10;;;;;;4973342;28;20039;-43
2022/11/21 12:42:48;;;;;;;;;;;3.40;80.90;;;;;;4994290;28;20224;-43
2022/11/21 12:45:44;;;;;;;;;;;3.40;80.70;;;;;;5011784;28;20363;-43
2022/11/21 12:54:32;;;;;;;;;;;3.50;81.50;;;;;;4994190;28;19940;-42
2022/11/21 12:57:07;;;;;;;;;;;3.50;81.60;;;;;;5006970;28;19928;-43
2022/11/21 12:59:54;;;;;;;;;;;3.40;81.40;;;;;;5013679;28;19909;-43
2022/11/21 13:02:25;;;;;;;;;;;3.40;81.40;;;;;;5011408;28;20327;-44
2022/11/21 13:04:53;;;;;;;;;;;3.50;81.40;;;;;;5000505;28;19910;-42
2022/11/21 13:07:23;;;;;;;;;;;3.50;81.40;;;;;;4993945;28;20262;-44
2022/11/21 13:09:52;;;;;;;;;;;3.50;80.80;;;;;;5004884;28;20347;-44
2022/11/21 13:12:36;;;;;;;;;;;3.50;80.40;;;;;;4993625;28;19906;-43
2022/11/21 13:15:08;;;;;;;;;;;3.50;80.40;;;;;;4993781;28;19914;-44
2022/11/21 13:17:52;;;;;;;;;;;3.40;80.60;;;;;;5007764;28;20047;-43
2022/11/21 13:20:23;;;;;;;;;;;3.40;81.00;;;;;;5008688;28;19909;-43
2022/11/21 13:23:07;;;;;;;;;;;3.40;80.90;;;;;;4999081;28;20004;-43
2022/11/21 13:25:45;;;;;;;;;;;3.40;80.90;;;;;;5013278;28;19906;-42
2022/11/21 13:28:16;;;;;;;;;;;3.40;80.90;;;;;;5012255;28;19909;-43
2022/11/21 13:31:00;;;;;;;;;;;3.40;80.60;;;;;;5011976;28;19916;-44
2022/11/21 13:33:38;;;;;;;;;;;3.40;80.70;;;;;;5011952;28;19917;-42
2022/11/21 13:36:10;;;;;;;;;;;3.40;80.90;;;;;;5007999;28;19967;-43
2022/11/21 13:38:56;;;;;;;;;;;3.40;81.10;;;;;;5003760;28;19914;-43
2022/11/21 13:44:28;;;;;;;;;;;3.40;81.00;;;;;;5007845;28;20318;-44
2022/11/21 13:47:00;;;;;;;;;;;3.40;80.80;;;;;;5013955;28;19924;-43
2022/11/21 13:49:56;;;;;;;;;;;3.30;80.90;;;;;;5005036;28;20213;-42
2022/11/21 13:52:44;;;;;;;;;;;3.40;81.00;;;;;;4981016;28;19914;-42
2022/11/21 13:55:29;;;;;;;;;;;3.40;81.40;;;;;;4997511;28;20282;-43
2022/11/21 13:58:09;;;;;;;;;;;3.40;81.70;;;;;;5007517;28;20044;-44
2022/11/21 14:00:53;;;;;;;;;;;3.40;81.20;;;;;;5014599;28;19914;-43
2022/11/21 14:03:37;;;;;;;;;;;3.40;81.30;;;;;;5011906;28;20369;-44
2022/11/21 14:06:08;;;;;;;;;;;3.40;81.60;;;;;;5015176;28;19917;-42
2022/11/21 14:08:35;;;;;;;;;;;3.40;81.90;;;;;;5016109;28;19971;-44
2022/11/21 14:11:22;;;;;;;;;;;3.30;82.00;;;;;;5011214;28;19913;-44
2022/11/21 14:13:49;;;;;;;;;;;3.30;82.00;;;;;;4992710;28;19906;-42
2022/11/21 14:16:35;;;;;;;;;;;3.30;81.80;;;;;;5014443;28;19909;-43
2022/11/21 14:19:02;;;;;;;;;;;3.30;82.20;;;;;;5015167;28;19909;-43
2022/11/21 14:21:30;;;;;;;;;;;3.20;82.60;;;;;;4995769;28;19929;-42
2022/11/21 14:24:03;;;;;;;;;;;3.20;82.70;;;;;;4996320;28;19921;-43
2022/11/21 14:26:32;;;;;;;;;;;3.20;83.10;;;;;;4996390;28;19913;-42
2022/11/21 14:29:16;;;;;;;;;;;3.10;83.40;;;;;;5005476;28;19909;-42
2022/11/21 14:31:46;;;;;;;;;;;3.10;83.50;;;;;;5014338;28;19917;-44
2022/11/21 14:34:22;;;;;;;;;;;3.10;83.60;;;;;;4998154;28;19937;-43
2022/11/21 14:36:49;;;;;;;;;;;3.00;83.50;;;;;;5013073;28;19963;-44
2022/11/21 14:39:16;;;;;;;;;;;3.00;83.60;;;;;;5012624;28;20398;-44
2022/11/21 14:41:47;;;;;;;;;;;3.00;83.80;;;;;;4996362;28;20292;-42
2022/11/21 14:44:31;;;;;;;;;;;3.00;83.70;;;;;;5011243;28;19905;-42
2022/11/21 14:47:13;;;;;;;;;;;3.00;83.90;;;;;;5001154;28;19999;-44
2022/11/21 14:49:47;;;;;;;;;;;2.90;83.90;;;;;;5002050;28;20247;-43
2022/11/21 14:52:31;;;;;;;;;;;2.90;84.30;;;;;;5011047;28;19964;-42
2022/11/21 14:54:58;;;;;;;;;;;2.80;84.10;;;;;;5011174;28;19909;-42
2022/11/21 14:57:27;;;;;;;;;;;2.70;83.90;;;;;;5006599;28;19948;-44
2022/11/21 14:59:55;;;;;;;;;;;2.70;83.60;;;;;;4995882;28;19912;-43
2022/11/21 15:02:23;;;;;;;;;;;2.60;83.20;;;;;;5006538;28;20296;-43
2022/11/21 15:04:51;;;;;;;;;;;2.60;82.60;;;;;;5013823;28;19913;-42
2022/11/21 15:07:24;;;;;;;;;;;2.50;81.80;;;;;;5013175;28;19979;-44
2022/11/21 15:09:50;;;;;;;;;;;2.50;81.30;;;;;;5013602;28;19928;-42
2022/11/21 15:12:39;;;;;;;;;;;2.40;81.20;;;;;;5014555;28;19924;-43
2022/11/21 15:15:14;;;;;;;;;;;2.40;81.10;;;;;;5010093;28;19913;-42